Time;durP1;ratioP1;P1;durP2;ratioP2;P2;SDS_P1;SDS_P2;PMS_P1;PMS_P2;Temp;Humidity;BMP_temperature;BMP_pressure;BME280_temperature;BME280_humidity;BME280_pressure;Samples;Min_cycle;Max_cycle;Signal;HPM_P1;HPM_P2
2023/08/20 00:00:40;;;;;;;7.03;3.33;;;;;;;23.48;56.70;100662.81;5051471;28;20099;-64
2023/08/20 00:03:13;;;;;;;5.18;3.20;;;;;;;23.39;58.68;100655.28;5093282;23;20059;-63
2023/08/20 00:05:41;;;;;;;4.30;2.80;;;;;;;22.96;59.38;100654.53;5093032;28;20027;-63
2023/08/20 00:08:07;;;;;;;4.63;2.90;;;;;;;22.74;60.82;100649.59;5092743;28;20020;-64
2023/08/20 00:10:34;;;;;;;6.13;2.97;;;;;;;22.43;61.80;100651.84;5099695;28;20043;-62
2023/08/20 00:13:00;;;;;;;4.90;3.20;;;;;;;22.40;61.22;100647.00;5072208;28;20115;-63
2023/08/20 00:15:27;;;;;;;5.65;3.42;;;;;;;22.55;61.07;100656.94;5072263;28;20024;-61
2023/08/20 00:17:55;;;;;;;4.35;3.28;;;;;;;22.73;60.70;100650.69;5094177;28;20466;-63
2023/08/20 00:20:22;;;;;;;3.38;2.70;;;;;;;22.89;60.34;100649.44;5102527;28;20382;-60
2023/08/20 00:22:49;;;;;;;5.60;2.90;;;;;;;22.94;59.20;100645.03;5103300;28;20477;-59
2023/08/20 00:25:17;;;;;;;4.80;2.63;;;;;;;23.06;60.14;100653.59;5092297;28;20020;-60
2023/08/20 00:27:43;;;;;;;5.35;2.97;;;;;;;23.19;59.24;100644.66;5092494;28;20024;-58
2023/08/20 00:30:10;;;;;;;6.47;3.00;;;;;;;23.29;58.47;100644.50;5090965;28;20046;-60
2023/08/20 00:32:37;;;;;;;6.13;3.20;;;;;;;23.19;58.86;100645.47;5094367;28;20421;-61
2023/08/20 00:35:04;;;;;;;4.35;3.13;;;;;;;22.78;59.38;100650.63;5092064;28;20032;-58
2023/08/20 00:37:31;;;;;;;4.90;2.72;;;;;;;22.81;60.24;100649.22;5092132;28;20116;-58
2023/08/20 00:39:58;;;;;;;7.65;3.33;;;;;;;22.83;60.69;100658.75;5093421;28;20019;-58
2023/08/20 00:42:28;;;;;;;4.85;3.47;;;;;;;22.71;60.41;100654.81;5105209;28;20051;-58
2023/08/20 00:44:54;;;;;;;5.32;3.28;;;;;;;22.47;60.74;100657.53;5111384;28;20036;-58
2023/08/20 00:47:21;;;;;;;6.50;3.33;;;;;;;22.45;61.64;100657.84;5106464;28;20020;-58
2023/08/20 00:49:49;;;;;;;5.97;3.35;;;;;;;22.13;61.75;100651.06;5086660;28;20430;-59
2023/08/20 00:52:17;;;;;;;6.22;3.60;;;;;;;21.93;62.86;100661.31;5092389;28;20035;-58
2023/08/20 00:54:47;;;;;;;6.00;3.00;;;;;;;21.85;63.89;100655.38;5091990;28;20047;-58
2023/08/20 00:57:15;;;;;;;6.25;3.38;;;;;;;21.67;64.83;100645.19;5091874;28;20189;-57
2023/08/20 00:59:44;;;;;;;4.93;2.95;;;;;;;21.69;64.58;100651.16;5091573;28;21354;-57
2023/08/20 01:02:10;;;;;;;6.97;3.35;;;;;;;21.61;64.71;100643.63;5091516;28;20514;-58
2023/08/20 01:04:37;;;;;;;10.40;3.80;;;;;;;21.55;65.73;100647.47;5089236;28;20107;-58
2023/08/20 01:07:18;;;;;;;6.15;3.30;;;;;;;21.52;66.21;100656.19;5091419;28;20047;-59
2023/08/20 01:10:14;;;;;;;4.30;3.28;;;;;;;21.45;65.89;100663.88;5091884;28;20028;-58
2023/08/20 01:12:41;;;;;;;6.60;3.35;;;;;;;21.49;66.62;100660.31;5091754;28;20047;-58
2023/08/20 01:15:13;;;;;;;8.25;3.80;;;;;;;21.31;66.98;100655.53;5091796;28;20092;-59
2023/08/20 01:17:43;;;;;;;6.50;3.90;;;;;;;21.30;67.17;100662.06;5088263;28;20039;-56
2023/08/20 01:20:11;;;;;;;6.45;3.88;;;;;;;21.22;66.92;100663.44;5077323;28;20482;-57
2023/08/20 01:23:27;;;;;;;5.80;3.88;;;;;;;21.05;67.62;100663.81;5070721;28;20040;-59
2023/08/20 01:26:12;;;;;;;6.68;4.00;;;;;;;20.81;68.40;100663.63;5061558;28;20040;-58
2023/08/20 01:28:39;;;;;;;8.27;5.05;;;;;;;20.67;68.82;100662.63;5075912;28;20036;-60
2023/08/20 01:31:07;;;;;;;7.32;4.18;;;;;;;20.52;69.85;100668.91;5091796;28;20030;-60
2023/08/20 01:33:34;;;;;;;7.45;4.40;;;;;;;20.42;70.32;100660.75;5115990;28;20042;-60
2023/08/20 01:36:01;;;;;;;8.77;4.88;;;;;;;20.35;70.66;100664.84;5116221;28;20031;-60
2023/08/20 01:38:27;;;;;;;10.25;4.80;;;;;;;20.26;71.03;100662.69;5084778;28;20032;-59
2023/08/20 01:40:53;;;;;;;9.57;4.88;;;;;;;20.09;71.79;100658.63;5075413;28;20028;-60
2023/08/20 01:43:20;;;;;;;8.77;5.22;;;;;;;19.96;72.30;100657.28;5075005;28;20494;-59
2023/08/20 01:45:46;;;;;;;7.47;4.97;;;;;;;20.12;72.20;100661.63;5074073;28;20040;-59
2023/08/20 01:48:12;;;;;;;10.48;5.28;;;;;;;20.15;71.95;100661.06;5096512;28;20055;-60
2023/08/20 01:50:38;;;;;;;10.98;4.72;;;;;;;20.17;71.62;100658.09;5095562;28;20020;-59
2023/08/20 01:53:07;;;;;;;10.30;4.82;;;;;;;20.23;70.99;100651.56;5086735;28;20068;-59
2023/08/20 01:55:34;;;;;;;5.43;4.57;;;;;;;19.96;72.31;100641.81;5091530;28;20023;-62
2023/08/20 01:58:00;;;;;;;8.13;4.95;;;;;;;19.93;72.43;100642.38;5114431;28;20038;-65
2023/08/20 02:00:28;;;;;;;10.27;4.95;;;;;;;19.96;72.51;100644.53;5103751;22;20094;-65
2023/08/20 02:02:55;;;;;;;7.65;4.78;;;;;;;19.92;72.16;100640.72;5073951;28;20036;-63
2023/08/20 02:05:21;;;;;;;9.63;5.38;;;;;;;19.68;73.06;100635.03;5075009;28;20107;-61
2023/08/20 02:07:47;;;;;;;8.23;4.20;;;;;;;19.78;72.39;100629.59;5075088;28;20039;-65
2023/08/20 02:10:17;;;;;;;14.40;6.13;;;;;;;19.63;73.30;100643.16;5075032;28;20017;-62
2023/08/20 02:12:43;;;;;;;8.73;5.22;;;;;;;19.64;72.61;100631.22;5066768;28;20116;-61
2023/08/20 02:15:11;;;;;;;134.40;17.85;;;;;;;19.57;73.76;100624.41;5073102;28;20089;-59
2023/08/20 02:17:37;;;;;;;16.92;5.95;;;;;;;19.51;73.87;100626.31;5067522;28;20028;-59
2023/08/20 02:20:05;;;;;;;486.33;59.78;;;;;;;19.48;73.87;100618.69;5054772;28;20095;-59
2023/08/20 02:22:34;;;;;;;146.70;17.20;;;;;;;19.41;73.99;100612.72;5061498;28;20055;-59
2023/08/20 02:25:00;;;;;;;14.20;5.30;;;;;;;19.31;74.73;100613.53;5058260;28;20035;-59
2023/08/20 02:27:27;;;;;;;10.95;5.80;;;;;;;19.38;74.75;100613.28;5074953;28;20181;-58
2023/08/20 02:29:53;;;;;;;9.18;5.63;;;;;;;19.22;74.94;100613.25;5072419;28;20052;-58
2023/08/20 02:32:20;;;;;;;9.82;5.68;;;;;;;19.22;75.06;100610.53;5073556;28;20032;-58
2023/08/20 02:34:51;;;;;;;11.43;5.45;;;;;;;19.23;75.48;100614.88;5056610;28;20059;-59
2023/08/20 02:37:18;;;;;;;12.73;6.13;;;;;;;19.21;75.30;100608.91;5074922;28;20039;-59
2023/08/20 02:39:44;;;;;;;10.73;5.55;;;;;;;19.18;74.92;100614.88;5074623;28;20078;-58
2023/08/20 02:42:11;;;;;;;9.27;5.43;;;;;;;19.05;75.57;100612.69;5072690;28;20032;-59
2023/08/20 02:44:37;;;;;;;14.57;6.45;;;;;;;19.14;75.28;100619.19;5056556;28;20028;-59
2023/08/20 02:47:04;;;;;;;17.20;6.57;;;;;;;19.01;75.72;100618.91;5074669;28;20055;-60
2023/08/20 02:49:30;;;;;;;12.80;6.45;;;;;;;18.97;76.17;100624.03;5074033;28;20179;-59
2023/08/20 02:51:57;;;;;;;13.20;6.82;;;;;;;18.80;77.08;100629.69;5055117;28;20039;-57
2023/08/20 02:54:23;;;;;;;11.70;6.90;;;;;;;18.81;76.96;100631.28;5074086;28;20082;-59
2023/08/20 02:56:49;;;;;;;15.52;7.68;;;;;;;18.68;77.87;100632.63;5074421;28;20364;-59
2023/08/20 02:59:16;;;;;;;12.75;6.22;;;;;;;18.44;78.81;100642.22;5072572;28;20136;-60
2023/08/20 03:01:42;;;;;;;16.58;7.13;;;;;;;18.41;79.47;100635.44;5073198;28;20033;-59
2023/08/20 03:04:10;;;;;;;11.93;6.80;;;;;;;18.36;79.68;100635.41;5072854;28;20048;-59
2023/08/20 03:06:36;;;;;;;19.67;8.60;;;;;;;18.25;80.28;100636.41;5065649;28;20485;-59
2023/08/20 03:09:04;;;;;;;16.58;7.93;;;;;;;18.19;80.77;100632.88;5053716;28;20035;-59
2023/08/20 03:11:30;;;;;;;16.02;8.18;;;;;;;17.96;81.81;100640.56;5053508;28;20025;-59
2023/08/20 03:13:56;;;;;;;14.15;7.13;;;;;;;17.99;81.49;100645.44;5053279;28;20360;-59
2023/08/20 03:16:23;;;;;;;12.38;6.75;;;;;;;18.00;82.05;100647.91;5053617;28;20028;-58
2023/08/20 03:18:49;;;;;;;14.80;8.43;;;;;;;17.76;83.38;100652.03;5019036;28;20024;-58
2023/08/20 03:21:15;;;;;;;18.35;7.95;;;;;;;17.65;83.86;100662.75;5073544;28;20112;-57
2023/08/20 03:23:41;;;;;;;18.63;8.18;;;;;;;17.63;83.73;100664.09;5062100;28;20124;-59
2023/08/20 03:26:08;;;;;;;17.73;8.50;;;;;;;17.40;85.54;100663.34;5066293;28;20028;-59
2023/08/20 03:28:34;;;;;;;12.02;7.72;;;;;;;17.51;84.76;100664.25;5073767;28;20032;-58
2023/08/20 03:31:01;;;;;;;16.23;8.38;;;;;;;17.49;85.04;100668.28;5073535;28;20055;-59
2023/08/20 03:33:27;;;;;;;14.02;8.23;;;;;;;17.37;85.57;100668.44;5072857;28;20070;-59
2023/08/20 03:35:54;;;;;;;13.55;8.07;;;;;;;17.22;85.93;100684.53;5070538;28;20095;-69
2023/08/20 03:38:20;;;;;;;20.63;9.20;;;;;;;17.03;86.93;100695.66;5070607;28;20486;-64
2023/08/20 03:40:46;;;;;;;16.02;8.18;;;;;;;16.89;87.73;100706.03;5069554;28;20104;-68
2023/08/20 03:43:13;;;;;;;20.38;7.53;;;;;;;16.82;87.91;100712.69;5072628;28;20035;-67
2023/08/20 03:45:39;;;;;;;12.50;6.75;;;;;;;16.80;88.14;100717.53;5072813;28;20505;-64
2023/08/20 03:48:05;;;;;;;12.07;7.03;;;;;;;16.68;88.81;100739.22;5073259;28;20123;-60
2023/08/20 03:50:31;;;;;;;13.65;7.20;;;;;;;16.61;89.36;100738.59;5071830;28;20028;-60
2023/08/20 03:52:58;;;;;;;13.25;8.00;;;;;;;16.59;89.84;100746.94;5072147;28;20021;-60
2023/08/20 03:55:24;;;;;;;15.15;8.32;;;;;;;16.68;90.34;100744.63;5071454;28;20032;-60
2023/08/20 03:57:50;;;;;;;12.93;7.40;;;;;;;16.65;90.41;100734.31;5072467;28;20021;-60
2023/08/20 04:00:16;;;;;;;19.10;9.63;;;;;;;16.55;90.99;100729.59;5071224;28;20060;-60
2023/08/20 04:02:43;;;;;;;17.60;9.30;;;;;;;16.58;91.04;100731.78;5052426;28;20032;-60
2023/08/20 04:05:09;;;;;;;18.83;9.10;;;;;;;16.52;91.21;100738.19;5046729;28;20036;-60
2023/08/20 04:07:35;;;;;;;14.30;8.95;;;;;;;16.49;91.37;100751.34;5072613;28;20051;-60
2023/08/20 04:10:02;;;;;;;17.83;10.38;;;;;;;16.50;92.34;100750.31;5072557;28;20031;-60
2023/08/20 04:12:28;;;;;;;13.65;9.25;;;;;;;16.55;91.72;100751.22;5072427;28;20025;-60
2023/08/20 04:14:54;;;;;;;22.83;10.10;;;;;;;16.70;91.01;100750.59;5072649;28;20028;-60
2023/08/20 04:17:20;;;;;;;16.50;8.75;;;;;;;16.67;90.93;100766.50;5072499;28;20368;-60
2023/08/20 04:19:47;;;;;;;16.35;8.02;;;;;;;16.73;90.51;100792.56;5072435;28;20545;-60
2023/08/20 04:22:13;;;;;;;15.98;7.65;;;;;;;16.81;90.21;100792.13;5072289;28;20064;-60
2023/08/20 04:24:39;;;;;;;15.68;8.00;;;;;;;16.89;89.81;100789.84;5064834;28;20025;-60
2023/08/20 04:27:06;;;;;;;15.50;8.40;;;;;;;16.95;89.36;100792.63;5083826;28;20481;-60
2023/08/20 04:29:33;;;;;;;15.00;8.50;;;;;;;16.94;89.35;100791.00;5092741;28;20099;-60
2023/08/20 04:31:59;;;;;;;21.33;10.63;;;;;;;16.90;89.43;100779.84;5073921;28;20033;-60
2023/08/20 04:34:28;;;;;;;17.33;8.82;;;;;;;16.96;88.97;100794.25;5072328;28;20020;-60
2023/08/20 04:36:54;;;;;;;18.17;9.38;;;;;;;17.00;89.02;100801.63;5072311;28;20024;-60
2023/08/20 04:39:21;;;;;;;21.58;8.73;;;;;;;17.12;88.52;100815.84;5072229;28;20386;-62
2023/08/20 04:41:47;;;;;;;16.10;8.57;;;;;;;17.09;88.33;100815.50;5071956;28;20024;-60
2023/08/20 04:44:13;;;;;;;15.57;8.00;;;;;;;17.13;88.01;100817.47;5078643;28;20032;-60
2023/08/20 04:46:39;;;;;;;19.15;9.30;;;;;;;17.15;88.24;100809.09;5057707;28;20029;-59
2023/08/20 04:49:05;;;;;;;13.35;7.55;;;;;;;17.15;87.87;100811.81;5092237;28;20020;-60
2023/08/20 04:51:32;;;;;;;16.00;8.73;;;;;;;17.09;88.49;100807.41;5083000;28;20111;-60
2023/08/20 04:53:58;;;;;;;13.82;8.98;;;;;;;17.08;88.52;100800.34;5071712;28;20064;-60
2023/08/20 04:56:24;;;;;;;14.75;8.43;;;;;;;17.04;88.70;100791.09;5070875;28;20556;-60
2023/08/20 04:58:50;;;;;;;18.40;8.98;;;;;;;17.13;87.81;100790.44;5070907;28;20474;-60
2023/08/20 05:01:17;;;;;;;20.90;8.98;;;;;;;17.07;88.10;100804.94;5071888;28;20501;-60
2023/08/20 05:03:43;;;;;;;17.38;7.70;;;;;;;17.09;87.69;100804.69;5070519;28;20101;-60
2023/08/20 05:06:09;;;;;;;12.15;8.13;;;;;;;17.00;87.94;100807.03;5071208;28;20035;-60
2023/08/20 05:08:35;;;;;;;14.73;8.10;;;;;;;17.00;87.81;100811.63;5053885;28;20033;-60
2023/08/20 05:11:03;;;;;;;16.65;8.25;;;;;;;17.07;87.89;100810.38;5056471;28;20083;-60
2023/08/20 05:13:29;;;;;;;14.05;8.18;;;;;;;17.09;87.47;100805.50;5090920;28;20031;-59
2023/08/20 05:15:55;;;;;;;19.27;9.13;;;;;;;17.11;87.78;100791.75;5077669;28;20024;-59
2023/08/20 05:18:21;;;;;;;13.23;8.05;;;;;;;17.07;88.14;100788.72;5092011;28;20048;-59
2023/08/20 05:20:48;;;;;;;18.90;8.68;;;;;;;17.05;88.19;100782.75;5091276;28;20028;-59
2023/08/20 05:23:14;;;;;;;17.35;9.07;;;;;;;17.21;87.43;100770.22;5071673;28;20036;-59
2023/08/20 05:25:40;;;;;;;17.30;8.27;;;;;;;17.21;87.10;100769.41;5071806;28;20051;-59
2023/08/20 05:28:06;;;;;;;13.35;7.43;;;;;;;17.27;87.32;100773.84;5078187;28;20081;-59
2023/08/20 05:30:33;;;;;;;18.02;9.13;;;;;;;17.28;87.11;100779.00;5091306;28;20028;-59
2023/08/20 05:32:59;;;;;;;13.80;7.80;;;;;;;17.27;86.93;100773.84;5071545;28;20029;-59
2023/08/20 05:35:26;;;;;;;16.85;8.88;;;;;;;17.22;87.27;100784.59;5071664;28;20028;-58
2023/08/20 05:37:53;;;;;;;17.08;8.45;;;;;;;17.19;87.28;100776.97;5071488;28;20063;-58
2023/08/20 05:40:20;;;;;;;15.20;7.55;;;;;;;17.23;86.87;100778.13;5067276;28;20504;-58
2023/08/20 05:42:46;;;;;;;12.57;7.68;;;;;;;17.21;87.44;100780.22;5051116;28;20031;-58
2023/08/20 05:45:13;;;;;;;17.90;7.40;;;;;;;17.34;86.65;100780.69;5051745;28;20029;-61
2023/08/20 05:47:39;;;;;;;11.38;7.43;;;;;;;17.30;86.96;100778.72;5067064;28;20024;-61
2023/08/20 05:50:06;;;;;;;14.98;7.40;;;;;;;17.25;86.97;100782.19;5071671;28;20035;-61
2023/08/20 05:52:32;;;;;;;18.83;8.45;;;;;;;17.33;86.69;100789.06;5062608;28;20505;-61
2023/08/20 05:54:59;;;;;;;15.02;8.23;;;;;;;17.23;87.46;100784.34;5054570;28;20024;-61
2023/08/20 05:57:25;;;;;;;18.38;8.10;;;;;;;17.08;88.17;100787.66;5052396;28;20062;-61
2023/08/20 05:59:51;;;;;;;13.25;7.90;;;;;;;17.20;88.07;100779.41;5030132;28;20046;-60
2023/08/20 06:02:18;;;;;;;13.52;7.75;;;;;;;17.15;88.25;100776.66;5031201;28;20475;-60
2023/08/20 06:04:45;;;;;;;14.65;6.97;;;;;;;17.15;87.62;100777.47;5040056;28;20124;-60
2023/08/20 06:07:11;;;;;;;14.10;8.00;;;;;;;17.19;87.94;100782.38;5060012;28;20025;-61
2023/08/20 06:09:37;;;;;;;15.27;7.75;;;;;;;17.26;87.06;100774.88;5051399;28;20514;-59
2023/08/20 06:12:04;;;;;;;17.42;8.05;;;;;;;17.25;87.57;100781.38;5051010;28;20548;-60
2023/08/20 06:14:30;;;;;;;13.40;7.15;;;;;;;17.24;87.36;100785.16;5047342;28;20032;-59
2023/08/20 06:16:56;;;;;;;13.45;7.55;;;;;;;17.25;87.50;100793.00;5030934;28;20038;-60
2023/08/20 06:19:23;;;;;;;14.18;7.30;;;;;;;17.17;87.50;100804.28;5038331;28;20036;-60
2023/08/20 06:21:49;;;;;;;16.90;7.72;;;;;;;17.35;87.35;100819.38;5034724;28;20025;-60
2023/08/20 06:24:15;;;;;;;16.63;7.82;;;;;;;17.36;87.14;100829.94;5039134;28;20372;-59
2023/08/20 06:26:44;;;;;;;17.42;7.93;;;;;;;17.40;87.03;100841.09;5034781;28;20486;-59
2023/08/20 06:29:10;;;;;;;17.67;7.55;;;;;;;17.31;87.56;100846.09;5039663;28;20052;-59
2023/08/20 06:31:36;;;;;;;15.15;7.93;;;;;;;17.39;87.46;100848.41;5074939;28;20459;-59
2023/08/20 06:34:02;;;;;;;14.95;7.65;;;;;;;17.33;87.46;100846.69;5074379;28;20510;-59
2023/08/20 06:36:29;;;;;;;16.67;7.70;;;;;;;17.45;87.26;100849.28;5074681;28;20467;-59
2023/08/20 06:38:55;;;;;;;12.82;7.70;;;;;;;17.46;87.50;100848.19;5070866;28;20024;-59
2023/08/20 06:41:23;;;;;;;12.68;7.47;;;;;;;17.57;86.55;100843.72;5057059;28;20024;-59
2023/08/20 06:43:49;;;;;;;15.57;7.43;;;;;;;17.55;86.64;100835.88;5074128;28;20032;-59
2023/08/20 06:46:15;;;;;;;11.00;6.72;;;;;;;17.68;86.38;100840.91;5073165;28;20024;-59
2023/08/20 06:48:42;;;;;;;14.82;7.55;;;;;;;17.53;86.17;100842.59;5074409;28;20021;-59
2023/08/20 06:51:21;;;;;;;14.82;6.88;;;;;;;17.58;85.72;100848.88;5074531;28;20554;-59
2023/08/20 06:53:48;;;;;;;10.70;6.75;;;;;;;17.60;85.76;100854.88;5067028;28;20487;-59
2023/08/20 06:56:15;;;;;;;13.10;7.43;;;;;;;17.54;86.18;100855.88;5053340;28;20098;-59
2023/08/20 06:58:42;;;;;;;15.25;6.65;;;;;;;17.41;86.57;100858.97;5039893;28;20052;-60
2023/08/20 07:01:09;;;;;;;10.45;5.88;;;;;;;17.49;86.38;100853.13;5058688;28;20406;-62
2023/08/20 07:03:40;;;;;;;9.60;6.38;;;;;;;17.47;86.70;100841.72;5066927;28;20120;-61
2023/08/20 07:06:07;;;;;;;14.57;6.63;;;;;;;17.51;86.33;100852.88;5073691;28;20021;-60
2023/08/20 07:08:33;;;;;;;11.55;6.30;;;;;;;17.54;86.25;100855.88;5073623;28;20441;-60
2023/08/20 07:10:59;;;;;;;10.65;6.57;;;;;;;17.63;86.05;100848.94;5055976;28;20532;-60
2023/08/20 07:13:25;;;;;;;14.05;7.32;;;;;;;17.52;85.28;100854.50;5071966;28;20048;-60
2023/08/20 07:15:52;;;;;;;9.73;5.97;;;;;;;17.58;85.31;100865.13;5054820;28;20383;-60
2023/08/20 07:18:18;;;;;;;11.15;6.65;;;;;;;17.66;84.91;100862.00;5071781;28;20032;-60
2023/08/20 07:20:45;;;;;;;9.00;6.10;;;;;;;17.70;84.63;100867.69;5055535;28;20028;-60
2023/08/20 07:23:11;;;;;;;14.35;6.82;;;;;;;17.77;84.09;100867.56;5072305;28;20367;-59
2023/08/20 07:25:39;;;;;;;10.90;6.57;;;;;;;17.88;83.48;100862.00;5072568;28;20036;-60
2023/08/20 07:28:06;;;;;;;10.52;5.53;;;;;;;17.81;83.66;100849.72;5072759;28;20039;-61
2023/08/20 07:30:33;;;;;;;14.88;6.38;;;;;;;17.80;83.54;100848.09;5072237;28;20488;-61
2023/08/20 07:32:59;;;;;;;8.80;6.22;;;;;;;17.68;84.28;100840.06;5071906;28;20024;-60
2023/08/20 07:35:25;;;;;;;10.60;6.38;;;;;;;17.69;84.07;100852.53;5073000;28;20024;-60
2023/08/20 07:37:52;;;;;;;13.15;5.75;;;;;;;17.71;83.74;100849.56;5072077;28;21490;-60
2023/08/20 07:40:18;;;;;;;8.43;6.00;;;;;;;17.73;83.26;100840.16;5071278;28;20029;-60
2023/08/20 07:42:44;;;;;;;8.55;5.93;;;;;;;17.69;83.61;100842.53;5072698;28;20036;-60
2023/08/20 07:45:11;;;;;;;10.18;5.30;;;;;;;17.68;83.81;100850.91;5071439;28;20064;-60
2023/08/20 07:47:37;;;;;;;8.60;5.88;;;;;;;17.72;83.60;100837.69;5072120;28;20020;-60
2023/08/20 07:50:05;;;;;;;8.57;5.50;;;;;;;17.65;83.83;100825.16;5072665;28;20052;-60
2023/08/20 07:52:32;;;;;;;8.98;5.20;;;;;;;17.60;83.57;100822.41;5059531;28;20094;-60
2023/08/20 07:54:58;;;;;;;10.45;5.25;;;;;;;17.61;83.48;100824.03;5065460;28;20024;-60
2023/08/20 07:57:25;;;;;;;8.50;5.72;;;;;;;17.78;82.79;100825.88;5072893;28;20044;-60
2023/08/20 07:59:52;;;;;;;8.32;5.60;;;;;;;17.76;82.62;100822.59;5071666;28;20064;-60
2023/08/20 08:02:19;;;;;;;7.50;5.38;;;;;;;17.74;82.85;100817.44;5053247;28;20436;-60
2023/08/20 08:04:45;;;;;;;8.35;5.80;;;;;;;17.84;82.48;100808.63;5070462;28;20024;-60
2023/08/20 08:07:12;;;;;;;10.45;5.40;;;;;;;17.78;82.48;100806.94;5071847;28;20146;-60
2023/08/20 08:09:38;;;;;;;11.10;6.20;;;;;;;17.68;83.02;100808.41;5071408;28;20395;-60
2023/08/20 08:12:05;;;;;;;8.77;5.82;;;;;;;17.73;82.58;100796.03;5072024;28;20025;-60
2023/08/20 08:14:31;;;;;;;9.75;6.43;;;;;;;17.58;82.57;100781.22;5070559;28;20439;-60
2023/08/20 08:16:57;;;;;;;7.72;5.63;;;;;;;17.58;82.75;100781.22;5072507;28;20445;-60
2023/08/20 08:19:23;;;;;;;14.35;5.97;;;;;;;17.60;82.65;100783.66;5072241;28;20552;-61
2023/08/20 08:21:50;;;;;;;11.32;7.32;;;;;;;17.61;82.31;100772.63;5072465;28;20471;-60
2023/08/20 08:24:16;;;;;;;10.30;5.80;;;;;;;17.51;82.59;100758.97;5072042;28;20029;-60
2023/08/20 08:26:42;;;;;;;12.00;6.15;;;;;;;17.48;83.15;100770.28;5071064;28;20532;-60
2023/08/20 08:29:09;;;;;;;10.73;6.07;;;;;;;17.43;82.91;100767.50;5071932;28;20020;-60
2023/08/20 08:31:35;;;;;;;10.85;5.85;;;;;;;17.45;83.58;100759.16;5072063;28;20398;-60
2023/08/20 08:34:05;;;;;;;10.75;7.07;;;;;;;17.54;83.11;100758.44;5072179;28;20493;-60
2023/08/20 08:36:31;;;;;;;9.80;6.68;;;;;;;17.54;83.40;100760.34;5072067;28;20052;-60
2023/08/20 08:38:58;;;;;;;10.57;6.65;;;;;;;17.34;84.12;100766.34;5070465;28;20054;-60
2023/08/20 08:41:26;;;;;;;14.75;7.63;;;;;;;17.43;84.37;100764.81;5071318;28;20059;-60
2023/08/20 08:43:55;;;;;;;9.35;6.97;;;;;;;17.30;84.43;100754.38;5053441;28;20110;-60
2023/08/20 08:46:23;;;;;;;10.40;7.03;;;;;;;17.31;84.49;100762.25;5071890;28;20036;-60
2023/08/20 08:48:49;;;;;;;12.25;6.90;;;;;;;17.34;84.70;100758.22;5071871;28;20466;-59
2023/08/20 08:51:16;;;;;;;11.63;7.00;;;;;;;17.32;84.62;100755.78;5069836;28;20028;-60
2023/08/20 08:53:44;;;;;;;10.07;7.30;;;;;;;17.43;84.69;100751.28;5051361;28;20037;-59
2023/08/20 08:56:11;;;;;;;11.23;6.78;;;;;;;17.35;85.11;100738.22;5065362;28;20029;-59
2023/08/20 08:58:37;;;;;;;12.02;6.53;;;;;;;17.25;85.35;100733.50;5072107;28;20513;-59
2023/08/20 09:01:03;;;;;;;8.98;6.22;;;;;;;17.26;85.58;100728.91;5071364;28;20510;-59
2023/08/20 09:03:30;;;;;;;9.43;6.65;;;;;;;17.24;86.42;100726.47;5071188;28;20119;-59
2023/08/20 09:06:05;;;;;;;11.65;7.28;;;;;;;17.19;86.30;100723.69;5071185;28;20116;-58
2023/08/20 09:08:32;;;;;;;11.10;6.40;;;;;;;17.11;86.46;100719.56;5071790;28;20031;-58
2023/08/20 09:11:01;;;;;;;10.57;6.93;;;;;;;17.17;86.87;100714.22;5071523;28;20032;-59
2023/08/20 09:13:47;;;;;;;8.57;6.22;;;;;;;17.22;86.55;100716.97;5071088;28;20382;-60
2023/08/20 09:16:13;;;;;;;9.60;6.30;;;;;;;17.33;86.54;100714.13;5053250;28;20028;-60
2023/08/20 09:18:41;;;;;;;10.70;6.20;;;;;;;17.28;86.26;100721.38;5071669;28;20024;-60
2023/08/20 09:21:09;;;;;;;14.35;6.35;;;;;;;17.34;86.06;100726.56;5071388;28;20024;-60
2023/08/20 09:23:36;;;;;;;11.43;5.72;;;;;;;17.17;86.83;100722.31;5070850;28;20047;-60
2023/08/20 09:26:03;;;;;;;10.93;7.10;;;;;;;17.24;86.34;100729.16;5071204;28;20036;-60
2023/08/20 09:28:40;;;;;;;9.10;6.40;;;;;;;17.30;86.53;100730.03;5071354;28;20069;-59
2023/08/20 09:31:06;;;;;;;9.05;6.30;;;;;;;17.21;87.27;100734.25;5051344;28;20104;-60
2023/08/20 09:33:33;;;;;;;12.25;6.30;;;;;;;17.15;87.30;100736.06;5068247;28;20028;-60
2023/08/20 09:35:59;;;;;;;12.52;6.25;;;;;;;17.03;87.82;100728.09;5071105;28;20024;-59
2023/08/20 09:38:26;;;;;;;7.60;5.60;;;;;;;17.00;88.01;100720.50;5071228;28;20114;-59
2023/08/20 09:40:56;;;;;;;8.63;6.25;;;;;;;17.03;88.15;100722.69;5071321;28;20027;-60
2023/08/20 09:43:29;;;;;;;7.35;5.57;;;;;;;17.20;87.67;100719.09;5070830;28;20029;-60
2023/08/20 09:45:58;;;;;;;9.88;5.80;;;;;;;17.35;86.94;100714.69;5070901;28;20028;-60
2023/08/20 09:48:29;;;;;;;8.48;6.40;;;;;;;17.26;86.66;100712.66;5073878;28;20044;-60
2023/08/20 09:51:01;;;;;;;8.27;4.85;;;;;;;17.16;87.36;100702.56;5071287;28;20436;-60
2023/08/20 09:53:43;;;;;;;10.93;5.63;;;;;;;17.14;87.66;100710.91;5055038;28;20025;-59
2023/08/20 09:56:28;;;;;;;8.20;5.10;;;;;;;17.17;87.69;100715.03;5095092;23;20064;-59
2023/08/20 09:58:54;;;;;;;6.63;4.45;;;;;;;17.24;87.16;100721.03;5075003;28;20043;-59
2023/08/20 10:01:20;;;;;;;7.10;5.07;;;;;;;17.26;87.02;100720.78;5074969;28;20035;-59
2023/08/20 10:03:47;;;;;;;7.70;5.22;;;;;;;17.17;87.43;100711.50;5075011;28;20020;-60
2023/08/20 10:06:13;;;;;;;8.60;5.38;;;;;;;17.17;87.54;100714.22;5074506;28;20489;-60
2023/08/20 10:08:40;;;;;;;8.40;5.18;;;;;;;17.23;86.46;100705.09;5074707;28;20033;-59
2023/08/20 10:11:06;;;;;;;8.00;4.55;;;;;;;17.26;86.90;100712.66;5061816;28;20024;-60
2023/08/20 10:13:32;;;;;;;8.45;5.40;;;;;;;17.18;86.78;100711.25;5059597;28;20029;-60
2023/08/20 10:15:59;;;;;;;6.82;5.15;;;;;;;17.19;86.98;100721.00;5054429;28;20475;-60
2023/08/20 10:18:27;;;;;;;9.68;5.72;;;;;;;17.25;86.59;100716.44;5054703;28;20103;-59
2023/08/20 10:20:53;;;;;;;9.43;5.15;;;;;;;17.23;86.65;100724.00;5054618;28;20485;-59
2023/08/20 10:23:25;;;;;;;10.68;5.93;;;;;;;17.35;86.59;100727.41;5054321;28;20419;-59
2023/08/20 10:26:06;;;;;;;9.80;6.43;;;;;;;17.29;86.68;100725.72;5054257;28;20391;-59
2023/08/20 10:28:32;;;;;;;10.45;6.47;;;;;;;17.23;87.20;100727.53;5036523;28;20017;-57
2023/08/20 10:31:10;;;;;;;10.55;6.47;;;;;;;17.20;87.07;100725.31;5054208;28;20029;-59
2023/08/20 10:33:56;;;;;;;10.43;7.03;;;;;;;17.09;88.14;100718.97;5054154;28;20017;-60
2023/08/20 10:36:27;;;;;;;11.55;6.97;;;;;;;16.98;88.25;100709.09;5072358;28;20031;-61
2023/08/20 10:38:56;;;;;;;11.45;6.88;;;;;;;16.98;88.33;100717.22;5070744;28;20028;-61
2023/08/20 10:41:29;;;;;;;8.18;6.18;;;;;;;16.98;88.42;100732.63;5053931;28;20029;-60
2023/08/20 10:43:59;;;;;;;10.70;6.93;;;;;;;17.05;88.22;100731.38;5053870;28;20029;-60
2023/08/20 10:46:34;;;;;;;9.98;6.35;;;;;;;16.92;89.18;100720.09;5053968;28;20078;-60
2023/08/20 10:49:02;;;;;;;;;;;;;;;16.93;88.45;100708.22;5054797;28;20040;-60
2023/08/20 10:51:29;;;;;;;10.88;6.10;;;;;;;17.01;88.48;100695.09;5053767;28;19912;-61
2023/08/20 10:54:04;;;;;;;7.15;6.05;;;;;;;16.99;88.61;100705.34;5053980;28;20451;-60
2023/08/20 10:56:47;;;;;;;13.48;7.32;;;;;;;16.94;88.79;100709.88;5053854;28;21438;-61
2023/08/20 10:59:21;;;;;;;7.85;5.65;;;;;;;16.98;89.04;100706.41;5052721;28;20033;-61
2023/08/20 11:01:52;;;;;;;9.02;5.88;;;;;;;17.05;89.02;100712.44;5053554;28;20017;-61
2023/08/20 11:04:32;;;;;;;8.73;5.85;;;;;;;16.98;89.32;100705.59;5053287;28;20038;-60
2023/08/20 11:06:59;;;;;;;7.95;5.65;;;;;;;17.00;88.90;100719.69;5053588;28;20368;-60
2023/08/20 11:09:32;;;;;;;9.13;5.45;;;;;;;16.93;89.67;100727.97;5053628;28;20028;-61
2023/08/20 11:11:58;;;;;;;10.30;6.13;;;;;;;17.01;89.20;100732.94;5053370;28;20430;-61
2023/08/20 11:14:25;;;;;;;13.00;6.63;;;;;;;16.93;89.73;100729.84;5053671;28;20027;-61
2023/08/20 11:16:51;;;;;;;11.18;6.45;;;;;;;16.94;90.10;100728.81;5052740;28;20098;-61
2023/08/20 11:19:22;;;;;;;10.48;6.15;;;;;;;16.99;89.77;100723.44;5053069;28;20048;-60
2023/08/20 11:21:50;;;;;;;6.32;5.20;;;;;;;17.08;88.96;100711.94;5053350;28;20029;-60